Ventura — ZCDT2 — position and weather

sailwx.info

Track history (hours):
 
Tides and Currents Weather Stations Pressure Air Temp Water Temp Dewpoint Dewpoint Depression Visibility Wind Speed Wind Dir Waves Ship Positions

Ventura

Last reported at 2018-May-23 08:48 UTC. Time now 2018-May-23 10:35 UTC.
Position N 39°32' W 009°51'.

Length 289 m; draft 8.6 m.

Type: Passenger vessel. MMSI: 310562000.

Date/timePositionNaut miles runAvg speedWind from/ knotsBaromVisibWave heightAir tempDewpointWater temp
2018-May-23 08:48N 39°32' W 009°51'1020.3
2018-May-23 08:19N 39°23' W 009°51'620.4
2018-May-23 08:00N 39°16' W 009°51'1020.2
2018-May-23 07:30N 39°06' W 009°51'1020.2
2018-May-23 07:00N 38°56' W 009°51'1019.9
2018-May-23 06:30N 38°46' W 009°51'1020.3
2018-May-23 06:01N 38°36' W 009°49'1020.2
2018-May-23 05:30N 38°26' W 009°46'1019.9
2018-May-23 05:00N 38°16' W 009°43'1019.9
2018-May-23 04:30N 38°07' W 009°41'1020.2
2018-May-23 04:00N 37°57' W 009°38'1020.0
2018-May-23 03:30N 37°47' W 009°36'1019.9
2018-May-23 03:00N 37°37' W 009°34'3919.9
2018-May-23 01:03N 36°60' W 009°21'6102.4
2018-May-23 01:00N 36°54' W 009°18'218.5 310 / 71014.710.8 16.014.316.0
2018-May-23 00:52N 36°56' W 009°20'2118.6
2018-May-22 23:43N 36°42' W 008°60'419.8
2018-May-22 23:30N 36°41' W 008°54'1619.8
2018-May-22 22:43N 36°37' W 008°36'420.1
2018-May-22 22:30N 36°36' W 008°31'1020.1
2018-May-22 22:00N 36°32' W 008°19'1220.2
2018-May-22 21:24N 36°28' W 008°05'2520.2
2018-May-22 20:11N 36°20' W 007°36'620.3
2018-May-22 19:52N 36°18' W 007°28'5519.1
2018-May-22 17:00N 36°00' W 006°24'3818.9 350 / 161013.527.0 18.514.218.5
2018-May-22 14:58N 35°58' W 005°37'511.3
2018-May-22 14:31N 35°59' W 005°31'612.4
2018-May-22 14:01N 36°01' W 005°24'67 5.1
2018-May-22 01:00N 36°24' W 004°06'13617.1 240 / 171012.610.8 18.014.618.0
2018-May-21 17:00N 37°06' W 001°24'3518.7 180 / 141010.810.8 22.016.318.8
2018-May-21 15:08N 37°35' W 000°59'1 6.2
2018-May-21 15:00N 37°35' W 000°59'0 0.0
2018-May-21 05:29N 37°36' W 000°59'1 1.8
2018-May-21 04:57N 37°35' W 000°59'3 7.5
2018-May-21 04:30N 37°32' W 000°57'816.5
2018-May-21 04:00N 37°32' W 000°47'917.7
2018-May-21 03:30N 37°34' W 000°36'917.2
2018-May-21 03:00N 37°40' W 000°29'816.7
2018-May-21 02:30N 37°45' W 000°20'1417.5
2018-May-21 01:44N 37°50' W 000°04'12119.2
2018-May-20 19:25N 38°35' E 002°19'819.5
2018-May-20 18:59N 38°38' E 002°29'1019.6
2018-May-20 18:30N 38°42' E 002°40'1319.6
2018-May-20 17:51N 38°49' E 002°54'719.4
2018-May-20 17:29N 38°52' E 003°02'1019.3
2018-May-20 16:59N 38°56' E 003°13'919.0
2018-May-20 16:30N 38°60' E 003°24'32018.8
2018-May-19 23:27N 41°27' E 009°36'1818.6
2018-May-19 22:29N 41°34' E 009°58'1018.6
2018-May-19 21:56N 41°38' E 010°10'1218.6
2018-May-19 21:16N 41°43' E 010°25'718.6
2018-May-19 20:55N 41°45' E 010°34'818.6
2018-May-19 20:30N 41°48' E 010°43'918.5
2018-May-19 20:00N 41°52' E 010°55'918.2
2018-May-19 19:30N 41°55' E 011°06'917.9
2018-May-19 19:00N 41°59' E 011°17'17 1.0
2018-May-19 01:02N 42°00' E 010°54'117.3
2018-May-19 01:00N 42°00' E 010°53'1616.4
2018-May-18 23:59N 42°02' E 010°31'816.5
2018-May-18 23:29N 42°03' E 010°20'917.0
2018-May-18 22:58N 42°05' E 010°08'816.1
2018-May-18 22:27N 42°08' E 009°58'1417.2
2018-May-18 21:39N 42°22' E 009°55'2117.3
2018-May-18 20:27N 42°43' E 009°54'817.2
2018-May-18 20:00N 42°50' E 009°57'917.3
2018-May-18 19:30N 42°59' E 009°60'917.4
2018-May-18 19:00N 43°07' E 010°03'917.5
2018-May-18 18:30N 43°15' E 010°06'816.7
2018-May-18 18:00N 43°23' E 010°09'815.5
2018-May-18 17:30N 43°31' E 010°12'4 8.7
2018-May-18 17:00N 43°33' E 010°17'0 0.8
2018-May-18 16:27N 43°33' E 010°18'0 0.0
2018-May-18 16:00N 43°33' E 010°18'0 0.0
2018-May-18 15:30N 43°33' E 010°18'0 0.0
2018-May-18 14:57N 43°33' E 010°18'0 0.0
2018-May-18 14:30N 43°33' E 010°18'0 0.0
2018-May-18 14:00N 43°33' E 010°18'0 0.0
2018-May-18 13:30N 43°33' E 010°18'0 0.0
2018-May-18 12:48N 43°33' E 010°18'0 0.0
2018-May-18 12:30N 43°33' E 010°18'0 0.0
2018-May-18 12:00N 43°33' E 010°18'0 0.0
2018-May-18 11:30N 43°33' E 010°18'0 0.0
2018-May-18 11:00N 43°33' E 010°18'0 0.0
2018-May-18 10:30N 43°33' E 010°18'0 0.0
2018-May-18 09:57N 43°33' E 010°18'0 0.0
2018-May-18 09:30N 43°33' E 010°18'0 0.0
2018-May-18 09:00N 43°33' E 010°18'0 0.0
2018-May-18 08:27N 43°33' E 010°18'0 0.0
2018-May-18 08:00N 43°33' E 010°18'0 0.0
2018-May-18 07:30N 43°33' E 010°18'0 0.0
2018-May-18 07:00N 43°33' E 010°18'0 0.0
2018-May-18 06:30N 43°33' E 010°18'0 0.0
2018-May-18 06:00N 43°33' E 010°18'0 0.0
2018-May-18 05:30N 43°33' E 010°18'0 0.0
2018-May-18 05:00N 43°33' E 010°18'0 0.0
2018-May-18 04:30N 43°33' E 010°18'0 0.9
2018-May-18 04:00N 43°33' E 010°17'5 9.6
2018-May-18 03:30N 43°30' E 010°12'611.9
2018-May-18 03:00N 43°29' E 010°04'612.2
2018-May-18 02:30N 43°31' E 009°56'612.5
2018-May-18 02:00N 43°31' E 009°47'612.4
2018-May-18 01:30N 43°30' E 009°39'611.1
2018-May-18 00:59N 43°32' E 009°31'511.3
2018-May-18 00:30N 43°32' E 009°24'611.6
2018-May-18 00:00N 43°31' E 009°16'611.9
2018-May-17 23:30N 43°31' E 009°08'611.7
2018-May-17 23:00N 43°31' E 008°60'611.6
2018-May-17 22:30N 43°32' E 008°52'611.6
2018-May-17 22:00N 43°32' E 008°44'611.4
2018-May-17 21:30N 43°32' E 008°36'612.3
2018-May-17 21:00N 43°32' E 008°28'712.5
2018-May-17 20:26N 43°32' E 008°18'512.1
2018-May-17 19:59N 43°32' E 008°10'1212.1
2018-May-17 18:58N 43°32' E 007°53'511.5
2018-May-17 18:29N 43°32' E 007°46'611.7
2018-May-17 18:00N 43°32' E 007°38'611.8
2018-May-17 17:30N 43°35' E 007°30'912.2
2018-May-17 16:45N 43°39' E 007°19'2 8.4
2018-May-17 16:30N 43°41' E 007°19'0 0.1
2018-May-17 15:09N 43°41' E 007°19'0 0.1
2018-May-17 15:00N 43°41' E 007°19'0 0.0
2018-May-17 14:30N 43°41' E 007°19'0 0.0
2018-May-17 14:00N 43°41' E 007°19'0 0.0
2018-May-17 13:30N 43°41' E 007°19'0 0.0
2018-May-17 12:57N 43°41' E 007°19'0 0.0
2018-May-17 12:15N 43°41' E 007°19'0 0.0
2018-May-17 12:00N 43°41' E 007°19'0 0.1
2018-May-17 11:30N 43°41' E 007°19'0 0.0
2018-May-17 11:00N 43°41' E 007°19'0 0.0
2018-May-17 10:30N 43°41' E 007°19'0 0.0
2018-May-17 09:48N 43°41' E 007°19'0 0.1
2018-May-17 09:30N 43°41' E 007°19'0 0.0
2018-May-17 09:00N 43°41' E 007°19'0 0.0
2018-May-17 08:18N 43°41' E 007°19'0 0.1
2018-May-17 08:00N 43°41' E 007°19'0 0.0
2018-May-17 06:09N 43°41' E 007°19'0 0.0
2018-May-17 05:54N 43°41' E 007°19'0 0.0
2018-May-17 05:24N 43°41' E 007°19'0 0.1
2018-May-17 05:00N 43°41' E 007°19'3 5.1
2018-May-17 04:30N 43°39' E 007°18'714.9
2018-May-17 04:00N 43°32' E 007°14'1020.5
2018-May-17 03:30N 43°23' E 007°06'22920.8
2018-May-16 16:29N 41°26' E 002°39'1021.1
2018-May-16 16:00N 41°21' E 002°28'1020.8
2018-May-16 15:30N 41°15' E 002°17'713.2
2018-May-16 15:00N 41°19' E 002°10'2 3.6
2018-May-16 14:21N 41°21' E 002°11'0 0.0
2018-May-16 13:57N 41°21' E 002°11'0 0.0
2018-May-16 13:27N 41°21' E 002°11'0 0.0
2018-May-16 12:57N 41°21' E 002°11'0 0.0
2018-May-16 12:27N 41°21' E 002°11'0 0.0
2018-May-16 11:57N 41°21' E 002°11'0 0.0
2018-May-16 11:27N 41°21' E 002°11'0 0.0
2018-May-16 10:57N 41°21' E 002°11'0 0.0
2018-May-16 10:27N 41°21' E 002°11'0 0.0
2018-May-16 09:57N 41°21' E 002°11'0 0.0
2018-May-16 09:27N 41°21' E 002°11'0 0.0
2018-May-16 08:57N 41°21' E 002°11'0 0.0
2018-May-16 08:27N 41°21' E 002°11'0 0.0
2018-May-16 07:57N 41°21' E 002°11'0 0.0
2018-May-16 07:27N 41°21' E 002°11'0 0.0
2018-May-16 06:57N 41°21' E 002°11'0 0.0
2018-May-16 06:27N 41°21' E 002°11'0 0.0
2018-May-16 05:57N 41°21' E 002°11'0 0.0
2018-May-16 05:27N 41°21' E 002°11'1 1.2
2018-May-16 05:01N 41°21' E 002°10'2 3.5
2018-May-16 04:30N 41°19' E 002°10'5 9.5
2018-May-16 04:00N 41°15' E 002°11'918.1
2018-May-16 03:31N 41°07' E 002°06'1019.3
2018-May-16 03:01N 40°58' E 001°60'1019.1
2018-May-16 02:30N 40°49' E 001°55'21219.6
2018-May-15 15:41N 37°45' W 000°21'320.4
2018-May-15 15:30N 37°42' W 000°23'1020.6
2018-May-15 15:00N 37°34' W 000°30'1019.7
2018-May-15 14:30N 37°27' W 000°40'1019.6
2018-May-15 14:00N 37°20' W 000°49'1019.0
2018-May-15 13:30N 37°14' W 000°58'21718.8
2018-May-15 01:59N 36°01' W 005°12'920.2
2018-May-15 01:31N 35°59' W 005°23'17618.1
2018-May-14 15:47N 36°29' W 008°58'9918.3
2018-May-14 10:24N 37°57' W 009°53'919.8
2018-May-14 09:57N 38°06' W 009°56'1020.2
2018-May-14 09:28N 38°15' W 009°58'920.0
2018-May-14 09:01N 38°24' W 010°01'1019.9
2018-May-14 08:30N 38°34' W 010°03'1019.7
2018-May-14 08:00N 38°44' W 010°07'1019.9
2018-May-14 07:30N 38°53' W 010°08'1019.9
2018-May-14 07:00N 39°03' W 010°06'1019.8
2018-May-14 06:30N 39°13' W 010°06'1019.7
2018-May-14 06:00N 39°23' W 010°06'16518.3
2018-May-13 21:00N 42°00' W 009°00'   270 / 61025.910.8 14.210.014.1
Track history (hours):
 
Tides and Currents Weather Stations Pressure Air Temp Water Temp Dewpoint Dewpoint Depression Visibility Wind Speed Wind Dir Waves Ship Positions

Ventura

Last reported at 2018-May-23 08:48 UTC. Time now 2018-May-23 10:35 UTC.
Position N 39°32' W 009°51'.

Length 289 m; draft 8.6 m.

Type: Passenger vessel. MMSI: 310562000.

Date/timePositionNaut miles runAvg speedWind from/ knotsBaromVisibWave heightAir tempDewpointWater temp
2018-May-23 08:48N 39°32' W 009°51'1020.3
2018-May-23 08:19N 39°23' W 009°51'620.4
2018-May-23 08:00N 39°16' W 009°51'1020.2
2018-May-23 07:30N 39°06' W 009°51'1020.2
2018-May-23 07:00N 38°56' W 009°51'1019.9
2018-May-23 06:30N 38°46' W 009°51'1020.3
2018-May-23 06:01N 38°36' W 009°49'1020.2
2018-May-23 05:30N 38°26' W 009°46'1019.9
2018-May-23 05:00N 38°16' W 009°43'1019.9
2018-May-23 04:30N 38°07' W 009°41'1020.2
2018-May-23 04:00N 37°57' W 009°38'1020.0
2018-May-23 03:30N 37°47' W 009°36'1019.9
2018-May-23 03:00N 37°37' W 009°34'3919.9
2018-May-23 01:03N 36°60' W 009°21'6102.4
2018-May-23 01:00N 36°54' W 009°18'218.5 310 / 71014.710.8 16.014.316.0
2018-May-23 00:52N 36°56' W 009°20'2118.6
2018-May-22 23:43N 36°42' W 008°60'419.8
2018-May-22 23:30N 36°41' W 008°54'1619.8
2018-May-22 22:43N 36°37' W 008°36'420.1
2018-May-22 22:30N 36°36' W 008°31'1020.1
2018-May-22 22:00N 36°32' W 008°19'1220.2
2018-May-22 21:24N 36°28' W 008°05'2520.2
2018-May-22 20:11N 36°20' W 007°36'620.3
2018-May-22 19:52N 36°18' W 007°28'5519.1
2018-May-22 17:00N 36°00' W 006°24'3818.9 350 / 161013.527.0 18.514.218.5
2018-May-22 14:58N 35°58' W 005°37'511.3
2018-May-22 14:31N 35°59' W 005°31'612.4
2018-May-22 14:01N 36°01' W 005°24'67 5.1
2018-May-22 01:00N 36°24' W 004°06'13617.1 240 / 171012.610.8 18.014.618.0
2018-May-21 17:00N 37°06' W 001°24'3518.7 180 / 141010.810.8 22.016.318.8
2018-May-21 15:08N 37°35' W 000°59'1 6.2
2018-May-21 15:00N 37°35' W 000°59'0 0.0
2018-May-21 05:29N 37°36' W 000°59'1 1.8
2018-May-21 04:57N 37°35' W 000°59'3 7.5
2018-May-21 04:30N 37°32' W 000°57'816.5
2018-May-21 04:00N 37°32' W 000°47'917.7
2018-May-21 03:30N 37°34' W 000°36'917.2
2018-May-21 03:00N 37°40' W 000°29'816.7
2018-May-21 02:30N 37°45' W 000°20'1417.5
2018-May-21 01:44N 37°50' W 000°04'12119.2
2018-May-20 19:25N 38°35' E 002°19'819.5
2018-May-20 18:59N 38°38' E 002°29'1019.6
2018-May-20 18:30N 38°42' E 002°40'1319.6
2018-May-20 17:51N 38°49' E 002°54'719.4
2018-May-20 17:29N 38°52' E 003°02'1019.3
2018-May-20 16:59N 38°56' E 003°13'919.0
2018-May-20 16:30N 38°60' E 003°24'32018.8
2018-May-19 23:27N 41°27' E 009°36'1818.6
2018-May-19 22:29N 41°34' E 009°58'1018.6
2018-May-19 21:56N 41°38' E 010°10'1218.6
2018-May-19 21:16N 41°43' E 010°25'718.6
2018-May-19 20:55N 41°45' E 010°34'818.6
2018-May-19 20:30N 41°48' E 010°43'918.5
2018-May-19 20:00N 41°52' E 010°55'918.2
2018-May-19 19:30N 41°55' E 011°06'917.9
2018-May-19 19:00N 41°59' E 011°17'17 1.0
2018-May-19 01:02N 42°00' E 010°54'117.3
2018-May-19 01:00N 42°00' E 010°53'1616.4
2018-May-18 23:59N 42°02' E 010°31'816.5
2018-May-18 23:29N 42°03' E 010°20'917.0
2018-May-18 22:58N 42°05' E 010°08'816.1
2018-May-18 22:27N 42°08' E 009°58'1417.2
2018-May-18 21:39N 42°22' E 009°55'2117.3
2018-May-18 20:27N 42°43' E 009°54'817.2
2018-May-18 20:00N 42°50' E 009°57'917.3
2018-May-18 19:30N 42°59' E 009°60'917.4
2018-May-18 19:00N 43°07' E 010°03'917.5
2018-May-18 18:30N 43°15' E 010°06'816.7
2018-May-18 18:00N 43°23' E 010°09'815.5
2018-May-18 17:30N 43°31' E 010°12'4 8.7
2018-May-18 17:00N 43°33' E 010°17'0 0.8
2018-May-18 16:27N 43°33' E 010°18'0 0.0
2018-May-18 16:00N 43°33' E 010°18'0 0.0
2018-May-18 15:30N 43°33' E 010°18'0 0.0
2018-May-18 14:57N 43°33' E 010°18'0 0.0
2018-May-18 14:30N 43°33' E 010°18'0 0.0
2018-May-18 14:00N 43°33' E 010°18'0 0.0
2018-May-18 13:30N 43°33' E 010°18'0 0.0
2018-May-18 12:48N 43°33' E 010°18'0 0.0
2018-May-18 12:30N 43°33' E 010°18'0 0.0
2018-May-18 12:00N 43°33' E 010°18'0 0.0
2018-May-18 11:30N 43°33' E 010°18'0 0.0
2018-May-18 11:00N 43°33' E 010°18'0 0.0
2018-May-18 10:30N 43°33' E 010°18'0 0.0
2018-May-18 09:57N 43°33' E 010°18'0 0.0
2018-May-18 09:30N 43°33' E 010°18'0 0.0
2018-May-18 09:00N 43°33' E 010°18'0 0.0
2018-May-18 08:27N 43°33' E 010°18'0 0.0
2018-May-18 08:00N 43°33' E 010°18'0 0.0
2018-May-18 07:30N 43°33' E 010°18'0 0.0
2018-May-18 07:00N 43°33' E 010°18'0 0.0
2018-May-18 06:30N 43°33' E 010°18'0 0.0
2018-May-18 06:00N 43°33' E 010°18'0 0.0
2018-May-18 05:30N 43°33' E 010°18'0 0.0
2018-May-18 05:00N 43°33' E 010°18'0 0.0
2018-May-18 04:30N 43°33' E 010°18'0 0.9
2018-May-18 04:00N 43°33' E 010°17'5 9.6
2018-May-18 03:30N 43°30' E 010°12'611.9
2018-May-18 03:00N 43°29' E 010°04'612.2
2018-May-18 02:30N 43°31' E 009°56'612.5
2018-May-18 02:00N 43°31' E 009°47'612.4
2018-May-18 01:30N 43°30' E 009°39'611.1
2018-May-18 00:59N 43°32' E 009°31'511.3
2018-May-18 00:30N 43°32' E 009°24'611.6
2018-May-18 00:00N 43°31' E 009°16'611.9
2018-May-17 23:30N 43°31' E 009°08'611.7
2018-May-17 23:00N 43°31' E 008°60'611.6
2018-May-17 22:30N 43°32' E 008°52'611.6
2018-May-17 22:00N 43°32' E 008°44'611.4
2018-May-17 21:30N 43°32' E 008°36'612.3
2018-May-17 21:00N 43°32' E 008°28'712.5
2018-May-17 20:26N 43°32' E 008°18'512.1
2018-May-17 19:59N 43°32' E 008°10'1212.1
2018-May-17 18:58N 43°32' E 007°53'511.5
2018-May-17 18:29N 43°32' E 007°46'611.7
2018-May-17 18:00N 43°32' E 007°38'611.8
2018-May-17 17:30N 43°35' E 007°30'912.2
2018-May-17 16:45N 43°39' E 007°19'2 8.4
2018-May-17 16:30N 43°41' E 007°19'0 0.1
2018-May-17 15:09N 43°41' E 007°19'0 0.1
2018-May-17 15:00N 43°41' E 007°19'0 0.0
2018-May-17 14:30N 43°41' E 007°19'0 0.0
2018-May-17 14:00N 43°41' E 007°19'0 0.0
2018-May-17 13:30N 43°41' E 007°19'0 0.0
2018-May-17 12:57N 43°41' E 007°19'0 0.0
2018-May-17 12:15N 43°41' E 007°19'0 0.0
2018-May-17 12:00N 43°41' E 007°19'0 0.1
2018-May-17 11:30N 43°41' E 007°19'0 0.0
2018-May-17 11:00N 43°41' E 007°19'0 0.0
2018-May-17 10:30N 43°41' E 007°19'0 0.0
2018-May-17 09:48N 43°41' E 007°19'0 0.1
2018-May-17 09:30N 43°41' E 007°19'0 0.0
2018-May-17 09:00N 43°41' E 007°19'0 0.0
2018-May-17 08:18N 43°41' E 007°19'0 0.1
2018-May-17 08:00N 43°41' E 007°19'0 0.0
2018-May-17 06:09N 43°41' E 007°19'0 0.0
2018-May-17 05:54N 43°41' E 007°19'0 0.0
2018-May-17 05:24N 43°41' E 007°19'0 0.1
2018-May-17 05:00N 43°41' E 007°19'3 5.1
2018-May-17 04:30N 43°39' E 007°18'714.9
2018-May-17 04:00N 43°32' E 007°14'1020.5
2018-May-17 03:30N 43°23' E 007°06'22920.8
2018-May-16 16:29N 41°26' E 002°39'1021.1
2018-May-16 16:00N 41°21' E 002°28'1020.8
2018-May-16 15:30N 41°15' E 002°17'713.2
2018-May-16 15:00N 41°19' E 002°10'2 3.6
2018-May-16 14:21N 41°21' E 002°11'0 0.0
2018-May-16 13:57N 41°21' E 002°11'0 0.0
2018-May-16 13:27N 41°21' E 002°11'0 0.0
2018-May-16 12:57N 41°21' E 002°11'0 0.0
2018-May-16 12:27N 41°21' E 002°11'0 0.0
2018-May-16 11:57N 41°21' E 002°11'0 0.0
2018-May-16 11:27N 41°21' E 002°11'0 0.0
2018-May-16 10:57N 41°21' E 002°11'0 0.0
2018-May-16 10:27N 41°21' E 002°11'0 0.0
2018-May-16 09:57N 41°21' E 002°11'0 0.0
2018-May-16 09:27N 41°21' E 002°11'0 0.0
2018-May-16 08:57N 41°21' E 002°11'0 0.0
2018-May-16 08:27N 41°21' E 002°11'0 0.0
2018-May-16 07:57N 41°21' E 002°11'0 0.0
2018-May-16 07:27N 41°21' E 002°11'0 0.0
2018-May-16 06:57N 41°21' E 002°11'0 0.0
2018-May-16 06:27N 41°21' E 002°11'0 0.0
2018-May-16 05:57N 41°21' E 002°11'0 0.0
2018-May-16 05:27N 41°21' E 002°11'1 1.2
2018-May-16 05:01N 41°21' E 002°10'2 3.5
2018-May-16 04:30N 41°19' E 002°10'5 9.5
2018-May-16 04:00N 41°15' E 002°11'918.1
2018-May-16 03:31N 41°07' E 002°06'1019.3
2018-May-16 03:01N 40°58' E 001°60'1019.1
2018-May-16 02:30N 40°49' E 001°55'21219.6
2018-May-15 15:41N 37°45' W 000°21'320.4
2018-May-15 15:30N 37°42' W 000°23'1020.6
2018-May-15 15:00N 37°34' W 000°30'1019.7
2018-May-15 14:30N 37°27' W 000°40'1019.6
2018-May-15 14:00N 37°20' W 000°49'1019.0
2018-May-15 13:30N 37°14' W 000°58'21718.8
2018-May-15 01:59N 36°01' W 005°12'920.2
2018-May-15 01:31N 35°59' W 005°23'17618.1
2018-May-14 15:47N 36°29' W 008°58'9918.3
2018-May-14 10:24N 37°57' W 009°53'919.8
2018-May-14 09:57N 38°06' W 009°56'1020.2
2018-May-14 09:28N 38°15' W 009°58'920.0
2018-May-14 09:01N 38°24' W 010°01'1019.9
2018-May-14 08:30N 38°34' W 010°03'1019.7
2018-May-14 08:00N 38°44' W 010°07'1019.9
2018-May-14 07:30N 38°53' W 010°08'1019.9
2018-May-14 07:00N 39°03' W 010°06'1019.8
2018-May-14 06:30N 39°13' W 010°06'1019.7
2018-May-14 06:00N 39°23' W 010°06'16518.3
2018-May-13 21:00N 42°00' W 009°00'   270 / 61025.910.8 14.210.014.1

Dump ship's entire track history